createdAt,value
2018-11-20T00:00:40.872Z,68.68
2018-11-20T00:03:49.475Z,69.29
2018-11-20T00:06:58.277Z,67.66
2018-11-20T00:10:06.641Z,67.95
2018-11-20T00:13:15.005Z,67.52
2018-11-20T00:16:23.350Z,67.19
2018-11-20T00:19:31.737Z,67.85
2018-11-20T00:22:40.114Z,67.20
2018-11-20T00:25:48.480Z,67.11
2018-11-20T00:28:56.845Z,67.37
2018-11-20T00:32:05.212Z,66.81
2018-11-20T00:35:13.588Z,66.27
2018-11-20T00:38:22.381Z,67.24
2018-11-20T00:41:30.741Z,67.41
2018-11-20T00:44:40.489Z,66.55
2018-11-20T00:47:48.884Z,65.23
2018-11-20T00:50:57.655Z,66.38
2018-11-20T00:53:56.742Z,66.97
2018-11-20T00:57:06.016Z,65.65
2018-11-20T01:00:14.828Z,66.78
2018-11-20T01:03:23.188Z,67.25
2018-11-20T01:06:22.538Z,66.80
2018-11-20T01:09:30.910Z,67.87
2018-11-20T01:12:39.299Z,66.91
2018-11-20T01:15:47.672Z,67.13
2018-11-20T01:18:56.028Z,68.16
2018-11-20T01:22:04.392Z,67.52
2018-11-20T01:25:12.762Z,67.68
2018-11-20T01:28:21.123Z,67.76
2018-11-20T01:31:29.505Z,68.24
2018-11-20T01:34:37.929Z,67.68
2018-11-20T01:37:35.427Z,68.29
2018-11-20T01:40:24.915Z,67.44
2018-11-20T01:43:04.456Z,67.53
2018-11-20T01:45:46.985Z,67.19
2018-11-20T01:48:34.906Z,67.64
2018-11-20T01:51:38.726Z,67.41
2018-11-20T01:54:47.387Z,66.40
2018-11-20T01:57:55.801Z,65.84
2018-11-20T02:01:04.151Z,66.77
2018-11-20T02:04:12.604Z,67.31
2018-11-20T02:07:21.086Z,66.87
2018-11-20T02:10:29.499Z,66.10
2018-11-20T02:14:16.220Z,66.83
2018-11-20T02:17:45.120Z,67.59
2018-11-20T02:20:57.795Z,67.88
2018-11-20T02:23:35.933Z,67.05
2018-11-20T02:26:17.253Z,66.80
2018-11-20T02:29:00.104Z,67.13
2018-11-20T02:32:04.372Z,66.28
2018-11-20T02:35:05.551Z,66.15
2018-11-20T02:37:53.042Z,68.04
2018-11-20T02:40:30.052Z,66.48
2018-11-20T02:43:16.847Z,66.50
2018-11-20T02:46:04.437Z,67.21
2018-11-20T02:49:13.023Z,67.29
2018-11-20T02:52:21.397Z,66.70
2018-11-20T02:55:29.772Z,66.64
2018-11-20T02:58:38.131Z,67.00
2018-11-20T03:01:46.593Z,66.84
2018-11-20T03:04:54.950Z,65.63
2018-11-20T03:07:57.675Z,67.03
2018-11-20T03:11:06.023Z,66.36
2018-11-20T03:14:14.419Z,67.12
2018-11-20T03:17:23.297Z,67.43
2018-11-20T03:20:31.689Z,67.47
2018-11-20T03:23:40.035Z,68.94
2018-11-20T03:26:49.028Z,69.46
2018-11-20T03:30:35.431Z,68.81
2018-11-20T03:33:43.809Z,68.35
2018-11-20T03:36:52.502Z,68.83
2018-11-20T03:40:00.871Z,69.06
2018-11-20T03:42:56.912Z,69.92
2018-11-20T03:46:05.272Z,69.01
2018-11-20T03:49:13.649Z,69.45
2018-11-20T03:52:13.370Z,69.46
2018-11-20T03:55:21.757Z,69.33
2018-11-20T03:58:30.402Z,69.83
2018-11-20T04:01:38.765Z,69.13
2018-11-20T04:04:46.832Z,69.97
2018-11-20T04:07:55.176Z,69.76
2018-11-20T04:11:03.989Z,71.05
2018-11-20T04:14:12.798Z,71.10
2018-11-20T04:17:21.170Z,70.56
2018-11-20T04:20:29.790Z,70.91
2018-11-20T04:23:38.582Z,70.35
2018-11-20T04:26:46.960Z,70.79
2018-11-20T04:29:44.350Z,69.98
2018-11-20T04:32:52.752Z,70.57
2018-11-20T04:35:50.427Z,69.14
2018-11-20T04:38:59.061Z,69.88
2018-11-20T04:41:58.063Z,71.02
2018-11-20T04:45:00.937Z,70.38
2018-11-20T04:47:50.854Z,70.00
2018-11-20T04:50:49.063Z,70.33
2018-11-20T04:53:40.937Z,70.36
2018-11-20T04:56:29.213Z,71.15
2018-11-20T04:59:37.772Z,69.69
2018-11-20T05:02:46.224Z,70.28
2018-11-20T05:05:45.918Z,70.21
2018-11-20T05:08:54.325Z,69.60
2018-11-20T05:11:55.638Z,69.42
2018-11-20T05:15:04.014Z,69.66
2018-11-20T05:18:12.407Z,69.72
2018-11-20T05:21:14.187Z,70.37
2018-11-20T05:24:22.559Z,70.36
2018-11-20T05:27:30.930Z,70.69
2018-11-20T05:30:39.340Z,69.94
2018-11-20T05:33:47.687Z,70.34
2018-11-20T05:36:56.061Z,70.23
2018-11-20T05:40:04.910Z,69.71
2018-11-20T05:43:13.237Z,69.78
2018-11-20T05:46:21.620Z,69.70
2018-11-20T05:49:30.012Z,68.86
2018-11-20T05:52:38.361Z,68.07
2018-11-20T05:55:46.743Z,67.60
2018-11-20T05:58:55.156Z,66.75
2018-11-20T06:02:03.849Z,68.23
2018-11-20T06:05:12.244Z,69.24
2018-11-20T06:08:09.134Z,69.37
2018-11-20T06:11:17.524Z,69.82
2018-11-20T06:14:25.937Z,70.34
2018-11-20T06:20:44.286Z,69.54
2018-11-20T06:23:52.666Z,68.86
2018-11-20T06:27:01.340Z,69.26
2018-11-20T06:30:09.689Z,67.77
2018-11-20T06:33:18.066Z,68.16
2018-11-20T06:36:26.522Z,69.28
2018-11-20T06:39:34.921Z,67.62
2018-11-20T06:42:43.307Z,69.47
2018-11-20T06:45:42.963Z,69.48
2018-11-20T06:48:51.352Z,69.95
2018-11-20T06:51:59.725Z,69.71
2018-11-20T06:55:08.130Z,67.89
2018-11-20T06:58:07.042Z,67.67
2018-11-20T07:01:15.433Z,67.36
2018-11-20T07:04:23.881Z,67.22
2018-11-20T07:07:32.421Z,69.40
2018-11-20T07:10:40.633Z,69.27
2018-11-20T07:13:51.104Z,69.17
2018-11-20T07:17:01.181Z,70.42
2018-11-20T07:20:09.571Z,70.30
2018-11-20T07:23:18.390Z,70.03
2018-11-20T07:26:26.794Z,71.17
2018-11-20T07:29:32.353Z,71.31
2018-11-20T07:32:40.718Z,70.98
2018-11-20T07:35:36.165Z,68.86
2018-11-20T07:38:44.534Z,70.53
2018-11-20T07:41:44.485Z,70.97
2018-11-20T07:44:52.983Z,70.47
2018-11-20T07:48:01.383Z,71.62
2018-11-20T07:51:02.877Z,71.97
2018-11-20T07:54:11.241Z,72.28
2018-11-20T07:57:20.171Z,71.15
2018-11-20T08:00:28.533Z,72.76
2018-11-20T08:03:37.233Z,71.40
2018-11-20T08:06:45.612Z,70.98
2018-11-20T08:09:53.993Z,71.70
2018-11-20T08:13:02.410Z,72.67
2018-11-20T08:16:10.822Z,73.46
2018-11-20T08:19:06.463Z,72.44
2018-11-20T08:22:14.861Z,70.42
2018-11-20T08:25:16.008Z,72.30
2018-11-20T08:28:24.440Z,70.59
2018-11-20T08:31:33.103Z,72.63
2018-11-20T08:34:21.390Z,73.98
2018-11-20T08:37:03.140Z,73.45
2018-11-20T08:40:01.468Z,71.35
2018-11-20T08:42:45.775Z,72.53
2018-11-20T08:45:35.792Z,74.07
2018-11-20T08:48:23.657Z,73.81
2018-11-20T08:51:27.719Z,73.50
2018-11-20T08:54:35.527Z,72.37
2018-11-20T08:57:43.389Z,72.49
2018-11-20T09:00:51.856Z,72.70
2018-11-20T09:04:00.658Z,72.34
2018-11-20T09:07:09.053Z,72.35
2018-11-20T09:10:17.535Z,71.98
2018-11-20T09:13:26.077Z,73.36
2018-11-20T09:16:13.854Z,74.28
2018-11-20T09:19:01.572Z,73.61
2018-11-20T09:21:43.646Z,73.34
2018-11-20T09:24:35.724Z,71.95
2018-11-20T09:27:34.013Z,72.51
2018-11-20T09:30:32.857Z,71.22
2018-11-20T09:33:15.680Z,69.22
2018-11-20T09:36:11.589Z,72.46
2018-11-20T09:39:00.919Z,72.83
2018-11-20T09:41:57.118Z,72.00
2018-11-20T09:44:56.367Z,71.75
2018-11-20T09:47:46.599Z,73.49
2018-11-20T09:50:43.955Z,72.50
2018-11-20T09:53:39.262Z,72.85
2018-11-20T09:56:41.181Z,72.98
2018-11-20T09:59:33.829Z,71.67
2018-11-20T10:02:20.617Z,73.03
2018-11-20T10:05:08.095Z,73.13
2018-11-20T10:07:56.959Z,72.55
2018-11-20T10:10:44.921Z,72.35
2018-11-20T10:13:41.127Z,72.17
2018-11-20T10:16:33.511Z,71.18
2018-11-20T10:19:21.368Z,70.94
2018-11-20T10:22:09.108Z,72.00
2018-11-20T10:25:14.201Z,71.67
2018-11-20T10:27:59.512Z,71.40
2018-11-20T10:30:48.927Z,71.18
2018-11-20T10:33:36.416Z,70.59
2018-11-20T10:36:20.154Z,71.64
2018-11-20T10:39:03.972Z,71.64
2018-11-20T10:42:05.573Z,71.14
2018-11-20T10:44:55.095Z,70.57
2018-11-20T10:47:44.399Z,71.94
2018-11-20T10:50:32.012Z,70.78
2018-11-20T10:53:10.366Z,71.11
2018-11-20T10:56:04.020Z,69.24
2018-11-20T10:58:57.553Z,68.97
2018-11-20T11:01:45.773Z,67.31
2018-11-20T11:04:33.212Z,68.49
2018-11-20T11:07:28.555Z,69.01
2018-11-20T11:10:23.335Z,69.99
2018-11-20T11:13:29.402Z,69.52
2018-11-20T11:16:10.830Z,68.79
2018-11-20T11:18:53.909Z,69.23
2018-11-20T11:21:43.183Z,69.30
2018-11-20T11:24:31.120Z,68.96
2018-11-20T11:27:18.837Z,68.51
2018-11-20T11:30:09.155Z,68.69
2018-11-20T11:32:57.057Z,73.40
2018-11-20T11:35:45.261Z,69.96
2018-11-20T11:38:43.193Z,66.62
2018-11-20T11:41:35.324Z,67.06
2018-11-20T11:44:30.968Z,68.63
2018-11-20T11:47:32.291Z,67.71
2018-11-20T11:50:19.780Z,66.09
2018-11-20T11:53:08.519Z,69.36
2018-11-20T11:56:16.090Z,69.66
2018-11-20T11:59:23.733Z,69.55
2018-11-20T12:05:07.080Z,69.80
2018-11-20T12:07:49.935Z,69.25
2018-11-20T12:10:30.818Z,69.87
2018-11-20T12:16:03.155Z,70.19
2018-11-20T12:18:58.314Z,67.73
2018-11-20T12:22:00.230Z,67.30
2018-11-20T12:25:04.674Z,69.10
2018-11-20T12:27:52.514Z,68.52
2018-11-20T12:30:42.283Z,68.93
2018-11-20T12:33:30.155Z,69.62
2018-11-20T12:36:14.466Z,70.13
2018-11-20T12:39:02.705Z,68.96
2018-11-20T12:41:53.660Z,68.57
2018-11-20T12:44:38.377Z,69.03
2018-11-20T12:47:18.746Z,70.18
2018-11-20T12:50:10.669Z,69.75
2018-11-20T12:52:57.387Z,69.69
2018-11-20T12:55:45.880Z,67.60
2018-11-20T12:58:37.426Z,68.77
2018-11-20T13:01:25.154Z,68.70
2018-11-20T13:04:20.120Z,67.67
2018-11-20T13:07:17.723Z,68.56
2018-11-20T13:10:04.941Z,69.28
2018-11-20T13:12:52.710Z,69.12
2018-11-20T13:15:38.559Z,68.88
2018-11-20T13:18:26.341Z,67.81
2018-11-20T13:21:14.081Z,69.64
2018-11-20T13:24:02.721Z,69.99
2018-11-20T13:26:50.585Z,69.52
2018-11-20T13:29:40.280Z,69.98
2018-11-20T13:32:29.761Z,69.35
2018-11-20T13:36:03.254Z,69.21
2018-11-20T13:39:11.874Z,69.12
2018-11-20T13:42:23.344Z,68.97
2018-11-20T13:45:20.308Z,67.84
2018-11-20T13:48:17.900Z,68.66
2018-11-20T13:51:25.507Z,68.71
2018-11-20T13:54:33.081Z,69.90
2018-11-20T13:57:40.735Z,71.39
2018-11-20T14:00:48.865Z,72.66
2018-11-20T14:03:56.381Z,72.18
2018-11-20T14:07:03.975Z,70.09
2018-11-20T14:10:12.024Z,71.66
2018-11-20T14:13:19.621Z,71.61
2018-11-20T14:16:27.218Z,71.36
2018-11-20T14:19:34.763Z,72.30
2018-11-20T14:22:42.416Z,71.02
2018-11-20T14:25:50.246Z,70.14
2018-11-20T14:28:57.832Z,69.33
2018-11-20T14:32:05.362Z,69.41
2018-11-20T14:35:13.203Z,70.65
2018-11-20T14:38:21.039Z,70.12
2018-11-20T14:41:28.604Z,68.86
2018-11-20T14:44:36.232Z,69.86
2018-11-20T14:47:43.792Z,69.37
2018-11-20T14:50:51.783Z,69.43
2018-11-20T14:53:59.367Z,68.96
2018-11-20T14:57:06.949Z,68.79
2018-11-20T15:00:14.511Z,69.62
2018-11-20T15:03:22.067Z,68.56
2018-11-20T15:06:21.842Z,69.22
2018-11-20T15:09:29.742Z,69.41
2018-11-20T15:12:37.315Z,68.29
2018-11-20T15:15:45.663Z,67.45
2018-11-20T15:18:53.229Z,67.83
2018-11-20T15:22:00.794Z,67.31
2018-11-20T15:25:08.445Z,65.06
2018-11-20T15:28:15.988Z,66.17
2018-11-20T15:31:23.569Z,66.66
2018-11-20T15:34:31.130Z,65.64
2018-11-20T15:37:29.041Z,66.17
2018-11-20T15:40:15.713Z,64.53
2018-11-20T15:43:07.324Z,64.06
2018-11-20T15:45:49.855Z,65.20
2018-11-20T15:48:57.515Z,65.57
2018-11-20T15:52:05.227Z,64.80
2018-11-20T15:55:06.283Z,66.28
2018-11-20T15:58:13.894Z,66.80
2018-11-20T16:01:23.177Z,65.43
2018-11-20T16:04:29.543Z,66.01
2018-11-20T16:07:37.108Z,66.96
2018-11-20T16:10:44.700Z,66.68
2018-11-20T16:13:52.325Z,65.37
2018-11-20T16:16:59.958Z,65.90
2018-11-20T16:20:07.902Z,64.90
2018-11-20T16:23:15.482Z,65.74
2018-11-20T16:26:23.060Z,66.84
2018-11-20T16:29:30.932Z,66.83
2018-11-20T16:32:38.501Z,63.94
2018-11-20T16:35:46.504Z,65.97
2018-11-20T16:38:54.457Z,65.06
2018-11-20T16:42:02.025Z,67.49
2018-11-20T16:45:09.845Z,67.77
2018-11-20T16:48:17.675Z,67.94
2018-11-20T16:51:25.233Z,65.87
2018-11-20T16:54:32.789Z,65.50
2018-11-20T16:57:40.380Z,67.31
2018-11-20T17:00:47.932Z,65.95
2018-11-20T17:03:55.641Z,66.91
2018-11-20T17:06:55.850Z,67.24
2018-11-20T17:10:03.888Z,66.72
2018-11-20T17:13:11.625Z,67.55
2018-11-20T17:16:19.381Z,67.79
2018-11-20T17:19:27.190Z,67.68
2018-11-20T17:22:34.757Z,67.03
2018-11-20T17:25:42.306Z,65.97
2018-11-20T17:28:49.848Z,66.70
2018-11-20T17:31:49.448Z,67.62
2018-11-20T17:34:56.980Z,67.12
2018-11-20T17:37:57.598Z,67.20
2018-11-20T17:41:05.465Z,67.70
2018-11-20T17:44:12.992Z,68.30
2018-11-20T17:47:20.548Z,67.31
2018-11-20T17:50:28.418Z,67.37
2018-11-20T17:53:36.004Z,67.84
2018-11-20T17:56:43.584Z,67.02
2018-11-20T17:59:51.171Z,65.09
2018-11-20T18:02:58.808Z,66.68
2018-11-20T18:06:06.375Z,67.21
2018-11-20T18:09:13.936Z,66.37
2018-11-20T18:12:21.480Z,66.77
2018-11-20T18:15:29.035Z,67.63
2018-11-20T18:18:36.616Z,66.55
2018-11-20T18:21:44.185Z,65.72
2018-11-20T18:24:51.758Z,66.04
2018-11-20T18:27:49.628Z,66.27
2018-11-20T18:30:57.188Z,66.60
2018-11-20T18:34:05.000Z,66.78
2018-11-20T18:37:12.545Z,65.60
2018-11-20T18:40:20.570Z,66.37
2018-11-20T18:43:28.634Z,67.30
2018-11-20T18:46:36.210Z,64.68
2018-11-20T18:49:44.199Z,67.66
2018-11-20T18:52:51.837Z,67.50
2018-11-20T18:55:59.397Z,67.65
2018-11-20T18:58:54.969Z,67.44
2018-11-20T19:01:50.416Z,67.35
2018-11-20T19:04:58.457Z,66.96
2018-11-20T19:07:56.682Z,66.60
2018-11-20T19:11:04.392Z,66.99
2018-11-20T19:14:12.013Z,67.44
2018-11-20T19:17:19.882Z,67.64
2018-11-20T19:20:27.404Z,66.45
2018-11-20T19:23:34.952Z,66.30
2018-11-20T19:26:30.497Z,67.27
2018-11-20T19:29:38.073Z,67.58
2018-11-20T19:32:45.663Z,65.25
2018-11-20T19:35:43.177Z,63.28
2018-11-20T19:38:50.738Z,64.97
2018-11-20T19:41:58.824Z,64.94
2018-11-20T19:45:06.601Z,65.78
2018-11-20T19:48:14.856Z,66.01
2018-11-20T19:51:23.429Z,65.84
2018-11-20T19:54:31.464Z,66.10
2018-11-20T19:57:39.545Z,66.60
2018-11-20T20:00:47.986Z,66.85
2018-11-20T20:03:55.602Z,65.29
2018-11-20T20:07:03.305Z,66.20
2018-11-20T20:10:17.614Z,66.04
2018-11-20T20:13:23.207Z,65.56
2018-11-20T20:16:29.531Z,64.66
2018-11-20T20:19:37.115Z,66.44
2018-11-20T20:22:45.289Z,64.88
2018-11-20T20:25:53.116Z,65.51
2018-11-20T20:29:00.859Z,63.29
2018-11-20T20:32:08.873Z,64.14
2018-11-20T20:35:16.604Z,65.96
2018-11-20T20:38:25.265Z,65.10
2018-11-20T20:41:52.344Z,64.04
2018-11-20T20:44:54.004Z,64.13
2018-11-20T20:48:02.302Z,64.92
2018-11-20T20:50:58.979Z,65.73
2018-11-20T20:54:12.372Z,65.47
2018-11-20T20:57:15.655Z,64.02
2018-11-20T21:00:25.108Z,64.29
2018-11-20T21:03:32.961Z,65.01
2018-11-20T21:06:33.754Z,66.34
2018-11-20T21:09:41.691Z,66.19
2018-11-20T21:12:49.256Z,64.64
2018-11-20T21:15:57.612Z,66.05
2018-11-20T21:19:06.217Z,65.66
2018-11-20T21:22:14.109Z,66.81
2018-11-20T21:25:22.144Z,65.29
2018-11-20T21:28:30.379Z,66.64
2018-11-20T21:31:38.463Z,66.83
2018-11-20T21:34:46.445Z,66.02
2018-11-20T21:37:54.442Z,65.90
2018-11-20T21:41:01.997Z,64.48
2018-11-20T21:44:10.448Z,66.73
2018-11-20T21:47:18.676Z,66.09
2018-11-20T21:50:27.610Z,64.67
2018-11-20T21:53:36.162Z,66.61
2018-11-20T21:56:44.382Z,66.50
2018-11-20T22:00:13.867Z,67.07
2018-11-20T22:03:22.561Z,66.41
2018-11-20T22:06:21.519Z,65.69
2018-11-20T22:09:29.779Z,65.23
2018-11-20T22:12:37.354Z,66.67
2018-11-20T22:15:45.672Z,65.82
2018-11-20T22:18:53.592Z,68.20
2018-11-20T22:21:56.554Z,67.79
2018-11-20T22:25:04.758Z,66.63
2018-11-20T22:28:04.780Z,66.44
2018-11-20T22:31:12.424Z,68.17
2018-11-20T22:34:20.843Z,68.25
2018-11-20T22:37:29.164Z,66.91
2018-11-20T22:40:36.739Z,66.89
2018-11-20T22:43:44.834Z,67.70
2018-11-20T22:46:53.203Z,65.20
2018-11-20T22:50:01.635Z,67.71
2018-11-20T22:53:09.672Z,65.26
2018-11-20T22:56:17.862Z,65.92
2018-11-20T22:59:26.273Z,67.02
2018-11-20T23:02:34.208Z,67.36
2018-11-20T23:05:41.007Z,68.22
2018-11-20T23:08:29.929Z,68.59
2018-11-20T23:11:18.393Z,68.58
2018-11-20T23:14:08.040Z,66.92
2018-11-20T23:16:37.253Z,67.32
2018-11-20T23:19:07.282Z,67.58
2018-11-20T23:21:55.768Z,67.17
2018-11-20T23:24:44.658Z,64.98
2018-11-20T23:27:33.129Z,67.75
2018-11-20T23:30:22.420Z,66.71
2018-11-20T23:32:51.384Z,65.39
2018-11-20T23:35:21.121Z,68.81
2018-11-20T23:37:50.427Z,67.53
2018-11-20T23:40:19.404Z,67.41
2018-11-20T23:42:48.382Z,67.86
2018-11-20T23:45:17.340Z,67.27
2018-11-20T23:47:47.205Z,67.68
2018-11-20T23:50:17.032Z,67.14
2018-11-20T23:52:46.662Z,65.84
2018-11-20T23:55:16.082Z,67.62
2018-11-20T23:57:45.828Z,66.59
